createdAt,value
2022-09-15T00:01:14.879Z,98785.77
2022-09-15T00:05:26.773Z,98776.95
2022-09-15T00:09:36.453Z,98772.08
2022-09-15T00:13:45.891Z,98765.98
2022-09-15T00:17:55.701Z,98764.27
2022-09-15T00:22:03.708Z,98763.92
2022-09-15T00:26:14.271Z,98771.20
2022-09-15T00:30:21.873Z,98775.79
2022-09-15T00:34:29.682Z,98782.95
2022-09-15T00:38:38.481Z,98788.67
2022-09-15T00:42:47.019Z,98791.27
2022-09-15T00:47:17.675Z,98795.52
2022-09-15T00:51:27.577Z,98801.58
2022-09-15T00:55:37.354Z,98797.54
2022-09-15T00:59:46.308Z,98791.17
2022-09-15T01:03:54.013Z,98786.25
2022-09-15T01:08:05.314Z,98785.23
2022-09-15T01:12:13.392Z,98785.45
2022-09-15T01:16:28.719Z,98788.58
2022-09-15T01:21:06.024Z,98778.77
2022-09-15T01:25:27.820Z,98789.52
2022-09-15T01:30:04.956Z,98792.39
2022-09-15T01:34:17.673Z,98785.20
2022-09-15T01:38:54.527Z,98785.65
2022-09-15T01:43:03.989Z,98777.55
2022-09-15T01:47:13.767Z,98777.95
2022-09-15T01:51:21.663Z,98779.02
2022-09-15T01:55:37.229Z,98781.10
2022-09-15T01:59:45.234Z,98784.23
2022-09-15T02:03:56.719Z,98785.71
2022-09-15T02:08:10.070Z,98794.73
2022-09-15T02:12:22.199Z,98802.73
2022-09-15T02:16:34.086Z,98813.86
2022-09-15T02:20:49.431Z,98818.96
2022-09-15T02:25:03.167Z,98823.63
2022-09-15T02:29:15.167Z,98818.36
2022-09-15T02:33:25.477Z,98822.80
2022-09-15T02:37:33.067Z,98820.48
2022-09-15T02:41:41.811Z,98818.45
2022-09-15T02:45:50.179Z,98818.15
2022-09-15T02:49:58.340Z,98814.52
2022-09-15T02:54:06.214Z,98812.79
2022-09-15T02:58:14.055Z,98824.61
2022-09-15T03:02:22.235Z,98825.84
2022-09-15T03:06:34.864Z,98829.60
2022-09-15T03:10:42.501Z,98830.25
2022-09-15T03:14:50.541Z,98836.96
2022-09-15T03:18:59.928Z,98842.27
2022-09-15T03:23:07.502Z,98855.88
2022-09-15T03:27:15.072Z,98870.25
2022-09-15T03:31:22.892Z,98888.80
2022-09-15T03:35:30.598Z,98894.58
2022-09-15T03:39:38.859Z,98900.84
2022-09-15T03:43:47.541Z,98902.98
2022-09-15T03:47:55.005Z,98907.84
2022-09-15T03:52:03.326Z,98910.51
2022-09-15T03:56:15.633Z,98900.54
2022-09-15T04:00:25.498Z,98905.91
2022-09-15T04:04:33.004Z,98907.04
2022-09-15T04:08:42.038Z,98918.05
2022-09-15T04:12:49.430Z,98924.60
2022-09-15T04:16:58.145Z,98934.39
2022-09-15T04:21:09.091Z,98938.77
2022-09-15T04:25:17.434Z,98930.55
2022-09-15T04:29:26.731Z,98935.08
2022-09-15T04:33:35.244Z,98931.05
2022-09-15T04:37:50.198Z,98939.09
2022-09-15T04:42:01.266Z,98943.88
2022-09-15T04:46:13.070Z,98942.71
2022-09-15T04:50:21.683Z,98950.69
2022-09-15T04:54:35.127Z,98955.11
2022-09-15T04:58:45.838Z,98955.31
2022-09-15T05:02:56.545Z,98955.98
2022-09-15T05:07:03.938Z,98954.21
2022-09-15T05:11:17.645Z,98952.22
2022-09-15T05:15:31.917Z,98961.79
2022-09-15T05:19:42.020Z,98970.45
2022-09-15T05:23:52.976Z,98976.56
2022-09-15T05:28:08.578Z,98976.74
2022-09-15T05:32:20.472Z,98978.64
2022-09-15T05:36:32.527Z,98972.32
2022-09-15T05:40:46.762Z,98973.34
2022-09-15T05:44:55.137Z,98974.41
2022-09-15T05:49:12.547Z,98978.82
2022-09-15T05:53:20.069Z,98977.57
2022-09-15T05:57:36.254Z,98975.66
2022-09-15T06:01:46.443Z,98981.86
2022-09-15T06:06:01.608Z,98982.41
2022-09-15T06:10:17.283Z,98977.89
2022-09-15T06:14:27.453Z,98977.00
2022-09-15T06:18:37.493Z,98970.74
2022-09-15T06:22:50.782Z,98970.17
2022-09-15T06:27:03.560Z,98976.64
2022-09-15T06:31:17.528Z,98985.77
2022-09-15T06:35:29.398Z,98981.98
2022-09-15T06:39:43.265Z,98983.77
2022-09-15T06:43:50.555Z,98992.16
2022-09-15T06:48:24.491Z,99005.83
2022-09-15T06:52:41.591Z,99014.60
2022-09-15T06:56:51.645Z,99013.84
2022-09-15T07:01:04.615Z,99006.76
2022-09-15T07:05:18.328Z,99009.73
2022-09-15T07:09:31.668Z,99021.09
2022-09-15T07:13:39.685Z,99028.89
2022-09-15T07:17:52.805Z,99029.38
2022-09-15T07:21:59.778Z,99034.30
2022-09-15T07:26:12.872Z,99041.36
2022-09-15T07:30:20.610Z,99044.16
2022-09-15T07:34:29.974Z,99045.63
2022-09-15T07:38:49.425Z,99046.89
2022-09-15T07:42:59.704Z,99052.02
2022-09-15T07:47:14.767Z,99064.80
2022-09-15T07:51:26.321Z,99073.37
2022-09-15T07:55:36.207Z,99078.63
2022-09-15T07:59:54.166Z,99085.73
2022-09-15T08:04:06.427Z,99094.94
2022-09-15T08:08:21.523Z,99092.39
2022-09-15T08:12:36.228Z,99094.11
2022-09-15T08:16:47.671Z,99097.37
2022-09-15T08:21:02.814Z,99095.91
2022-09-15T08:25:16.368Z,99090.35
2022-09-15T08:29:27.809Z,99082.77
2022-09-15T08:33:45.856Z,99078.86
2022-09-15T08:37:58.006Z,99077.76
2022-09-15T08:42:07.974Z,99077.02
2022-09-15T08:46:22.022Z,99071.82
2022-09-15T08:50:36.003Z,99068.05
2022-09-15T08:54:43.926Z,99068.66
2022-09-15T08:58:51.478Z,99073.99
2022-09-15T09:03:42.563Z,99068.54
2022-09-15T09:08:21.172Z,99058.52
2022-09-15T09:12:41.386Z,99055.86
2022-09-15T09:17:09.778Z,99065.95
2022-09-15T09:21:28.352Z,99066.13
2022-09-15T09:25:39.017Z,99065.62
2022-09-15T09:29:52.258Z,99056.64
2022-09-15T09:34:12.556Z,99053.20
2022-09-15T09:38:24.447Z,99053.80
2022-09-15T09:42:35.043Z,99069.58
2022-09-15T09:46:46.827Z,99076.89
2022-09-15T09:50:56.187Z,99068.21
2022-09-15T09:55:22.082Z,99066.35
2022-09-15T09:59:43.755Z,99068.56
2022-09-15T10:03:53.270Z,99054.80
2022-09-15T10:08:05.237Z,99044.09
2022-09-15T10:12:32.727Z,99043.77
2022-09-15T10:16:42.881Z,99051.85
2022-09-15T10:20:54.370Z,99047.73
2022-09-15T10:25:02.607Z,99042.30
2022-09-15T10:29:29.303Z,99039.21
2022-09-15T10:33:38.368Z,99037.83
2022-09-15T10:37:59.803Z,99033.21
2022-09-15T10:42:16.454Z,99037.17
2022-09-15T10:46:29.570Z,99034.09
2022-09-15T10:50:46.320Z,99035.14
2022-09-15T10:55:04.133Z,99035.08
2022-09-15T10:59:33.381Z,99031.87
2022-09-15T11:03:53.554Z,99035.43
2022-09-15T11:08:20.404Z,99032.37
2022-09-15T11:12:39.390Z,99033.36
2022-09-15T11:16:55.619Z,99027.48
2022-09-15T11:21:23.705Z,99025.98
2022-09-15T11:25:33.751Z,99023.57
2022-09-15T11:29:53.441Z,99022.92
2022-09-15T11:34:05.957Z,99019.16
2022-09-15T11:38:27.036Z,99011.84
2022-09-15T11:42:40.358Z,99014.92
2022-09-15T11:47:02.921Z,99009.86
2022-09-15T11:51:11.946Z,99006.95
2022-09-15T11:55:25.175Z,99005.04
2022-09-15T11:59:37.886Z,99003.75
2022-09-15T12:03:50.152Z,99000.00
2022-09-15T12:08:02.431Z,99005.71
2022-09-15T12:12:12.843Z,99003.48
2022-09-15T12:16:21.813Z,99002.89
2022-09-15T12:20:31.886Z,98997.31
2022-09-15T12:24:46.121Z,98994.68
2022-09-15T12:29:02.581Z,98993.24
2022-09-15T12:33:49.641Z,98992.72
2022-09-15T12:37:58.471Z,98986.70
2022-09-15T12:42:14.993Z,98981.23
2022-09-15T12:46:23.502Z,98983.77
2022-09-15T12:50:34.357Z,98982.59
2022-09-15T12:54:46.582Z,98983.69
2022-09-15T12:58:54.528Z,98978.71
2022-09-15T13:03:02.171Z,98971.14
2022-09-15T13:07:39.453Z,98973.66
2022-09-15T13:11:48.871Z,98970.88
2022-09-15T13:15:58.163Z,98969.77
2022-09-15T13:20:16.029Z,98973.27
2022-09-15T13:24:40.053Z,98975.23
2022-09-15T13:28:48.758Z,98969.84
2022-09-15T13:33:03.175Z,98969.06
2022-09-15T13:42:32.963Z,98968.10
2022-09-15T13:46:48.872Z,98972.43
2022-09-15T13:51:00.770Z,98972.42
2022-09-15T13:55:24.463Z,98968.98
2022-09-15T13:59:33.978Z,98963.34
2022-09-15T14:03:46.546Z,98962.94
2022-09-15T14:08:01.395Z,98962.98
2022-09-15T14:12:13.515Z,98962.23
2022-09-15T14:16:29.841Z,98965.88
2022-09-15T14:20:37.976Z,98965.11
2022-09-15T14:24:45.403Z,98970.42
2022-09-15T14:28:57.689Z,98961.52
2022-09-15T14:33:07.121Z,98957.70
2022-09-15T14:37:24.055Z,98958.52
2022-09-15T14:41:41.076Z,98957.79
2022-09-15T14:45:55.224Z,98957.30
2022-09-15T14:50:16.251Z,98954.30
2022-09-15T14:54:29.637Z,98952.79
2022-09-15T14:58:38.859Z,98951.49
2022-09-15T15:02:56.086Z,98950.66
2022-09-15T15:07:08.592Z,98952.92
2022-09-15T15:11:18.833Z,98953.38
2022-09-15T15:15:28.554Z,98955.77
2022-09-15T15:19:42.049Z,98947.47
2022-09-15T15:23:49.592Z,98946.02
2022-09-15T15:27:58.185Z,98949.86
2022-09-15T15:32:12.092Z,98949.14
2022-09-15T15:36:25.106Z,98953.91
2022-09-15T15:40:37.690Z,98957.09
2022-09-15T15:45:04.834Z,98953.06
2022-09-15T15:49:14.034Z,98957.08
2022-09-15T15:53:22.035Z,98956.96
2022-09-15T15:57:33.219Z,98960.29
2022-09-15T16:01:40.861Z,98957.11
2022-09-15T16:05:52.007Z,98964.66
2022-09-15T16:09:59.795Z,98964.60
2022-09-15T16:14:10.054Z,98964.45
2022-09-15T16:18:19.029Z,98965.92
2022-09-15T16:22:26.516Z,98974.08
2022-09-15T16:26:35.979Z,98980.95
2022-09-15T16:30:43.667Z,98979.60
2022-09-15T16:34:52.744Z,98977.70
2022-09-15T16:39:00.194Z,98980.22
2022-09-15T16:43:13.908Z,98978.23
2022-09-15T16:47:21.595Z,98985.53
2022-09-15T16:51:31.626Z,98979.83
2022-09-15T16:55:42.953Z,98981.20
2022-09-15T16:59:50.405Z,98989.20
2022-09-15T17:03:58.693Z,98996.65
2022-09-15T17:08:07.440Z,98995.95
2022-09-15T17:12:15.598Z,98992.62
2022-09-15T17:16:23.296Z,99006.34
2022-09-15T17:20:33.750Z,99009.85
2022-09-15T17:24:44.465Z,99007.56
2022-09-15T17:28:52.511Z,99013.65
2022-09-15T17:33:08.662Z,99010.80
2022-09-15T17:37:18.759Z,99009.50
2022-09-15T17:41:26.167Z,99008.00
2022-09-15T17:45:37.141Z,99014.55
2022-09-15T17:49:44.813Z,99018.79
2022-09-15T17:53:55.380Z,99018.46
2022-09-15T17:58:05.647Z,99019.59
2022-09-15T18:02:20.465Z,99023.36
2022-09-15T18:06:30.051Z,99023.72
2022-09-15T18:10:38.574Z,99030.61
2022-09-15T18:14:45.690Z,99038.75
2022-09-15T18:18:53.632Z,99045.27
2022-09-15T18:23:02.323Z,99042.71
2022-09-15T18:27:09.735Z,99046.63
2022-09-15T18:31:17.910Z,99055.10
2022-09-15T18:35:26.011Z,99055.52
2022-09-15T18:39:34.467Z,99061.56
2022-09-15T18:43:42.437Z,99061.95
2022-09-15T18:47:52.931Z,99059.11
2022-09-15T18:52:02.567Z,99066.18
2022-09-15T18:56:14.886Z,99067.39
2022-09-15T19:00:24.898Z,99072.69
2022-09-15T19:04:36.103Z,99071.17
2022-09-15T19:08:46.030Z,99071.00
2022-09-15T19:12:53.980Z,99076.38
2022-09-15T19:17:01.604Z,99082.67
2022-09-15T19:21:11.817Z,99086.17
2022-09-15T19:25:19.371Z,99092.50
2022-09-15T19:29:33.203Z,99094.00
2022-09-15T19:33:42.428Z,99094.08
2022-09-15T19:37:50.598Z,99092.13
2022-09-15T19:41:58.204Z,99091.65
2022-09-15T19:46:05.538Z,99094.11
2022-09-15T19:50:14.105Z,99091.05
2022-09-15T19:54:22.776Z,99092.11
2022-09-15T19:58:31.362Z,99094.77
2022-09-15T20:02:39.383Z,99101.10
2022-09-15T20:06:48.222Z,99103.95
2022-09-15T20:10:55.721Z,99107.08
2022-09-15T20:15:04.666Z,99102.08
2022-09-15T20:19:12.354Z,99105.08
2022-09-15T20:23:20.366Z,99102.56
2022-09-15T20:27:30.277Z,99104.98
2022-09-15T20:31:38.188Z,99104.63
2022-09-15T20:35:46.554Z,99108.95
2022-09-15T20:39:54.479Z,99111.13
2022-09-15T20:44:05.521Z,99109.69
2022-09-15T20:48:13.227Z,99108.45
2022-09-15T20:52:20.956Z,99105.86
2022-09-15T20:56:29.866Z,99099.48
2022-09-15T21:00:37.567Z,99099.80
2022-09-15T21:04:45.297Z,99101.97
2022-09-15T21:08:54.022Z,99102.55
2022-09-15T21:13:02.186Z,99111.95
2022-09-15T21:17:10.048Z,99118.05
2022-09-15T21:21:19.280Z,99118.20
2022-09-15T21:25:26.824Z,99118.59
2022-09-15T21:29:34.758Z,99120.94
2022-09-15T21:33:42.633Z,99128.38
2022-09-15T21:37:50.506Z,99129.76
2022-09-15T21:41:57.851Z,99130.66
2022-09-15T21:46:06.973Z,99131.18
2022-09-15T21:50:14.388Z,99136.95
2022-09-15T21:54:21.891Z,99136.61
2022-09-15T21:58:40.306Z,99141.34
2022-09-15T22:02:54.041Z,99150.73
2022-09-15T22:07:04.074Z,99150.59
2022-09-15T22:11:13.060Z,99145.67
2022-09-15T22:15:21.341Z,99154.98
2022-09-15T22:19:29.537Z,99161.95
2022-09-15T22:23:36.967Z,99164.60
2022-09-15T22:27:44.376Z,99165.73
2022-09-15T22:31:51.877Z,99173.40
2022-09-15T22:35:59.661Z,99177.46
2022-09-15T22:40:08.568Z,99178.83
2022-09-15T22:44:22.426Z,99182.49
2022-09-15T22:48:30.127Z,99184.04
2022-09-15T22:52:37.841Z,99186.38
2022-09-15T22:56:45.737Z,99182.90
2022-09-15T23:00:53.177Z,99178.73
2022-09-15T23:05:00.740Z,99178.52
2022-09-15T23:09:11.024Z,99176.20
2022-09-15T23:13:20.342Z,99174.46
2022-09-15T23:17:28.103Z,99176.86
2022-09-15T23:21:35.730Z,99176.15
2022-09-15T23:25:43.286Z,99173.80
2022-09-15T23:29:50.635Z,99171.36
2022-09-15T23:33:57.931Z,99169.39
2022-09-15T23:38:05.837Z,99168.83
2022-09-15T23:42:18.110Z,99172.48
2022-09-15T23:46:26.339Z,99181.36
2022-09-15T23:50:34.450Z,99184.70
2022-09-15T23:54:42.114Z,99189.36
2022-09-15T23:58:49.740Z,99196.94
